Terminal Aerodrome Forecast
Issued by NWS Greer, SC

Home | Current Version | Previous Version | Text Only | Print | Product List | Glossary On
Versions: 1 2 3 4 5 6 7 8 9 10 11 12 13 14
000
FTUS42 KGSP 202056 AAB
TAFGSP
TAF AMD
KGSP 202056Z 2021/2118 06005KT 6SM BR OVC008
     FM210500 00000KT 4SM BR OVC008
     FM211200 05003KT 3SM BR OVC010
     FM211300 05003KT 6SM BR OVC017
     FM211700 07004KT P6SM OVC024=

USA.gov is the U.S. government's official web portal to all federal, state and local government web resources and services.